createdAt,value
2023-02-14T00:01:09.179Z,1.92
2023-02-14T00:03:36.497Z,1.76
2023-02-14T00:06:08.430Z,1.94
2023-02-14T00:08:36.788Z,1.71
2023-02-14T00:11:05.587Z,1.61
2023-02-14T00:13:33.019Z,1.71
2023-02-14T00:16:00.307Z,1.93
2023-02-14T00:18:47.551Z,2.05
2023-02-14T00:21:14.709Z,2.03
2023-02-14T00:23:41.862Z,2.15
2023-02-14T00:26:14.908Z,1.97
2023-02-14T00:28:43.613Z,1.81
2023-02-14T00:31:11.401Z,1.88
2023-02-14T00:33:39.010Z,1.80
2023-02-14T00:36:07.579Z,1.80
2023-02-14T00:38:36.150Z,2.08
2023-02-14T00:41:05.119Z,1.97
2023-02-14T00:43:32.194Z,1.96
2023-02-14T00:45:59.278Z,1.63
2023-02-14T00:48:26.634Z,1.60
2023-02-14T00:50:54.861Z,1.44
2023-02-14T00:53:21.936Z,1.63
2023-02-14T00:55:50.332Z,1.52
2023-02-14T00:58:17.390Z,1.33
2023-02-14T01:00:44.533Z,1.49
2023-02-14T01:03:11.698Z,1.36
2023-02-14T01:05:38.734Z,1.52
2023-02-14T01:08:06.082Z,1.41
2023-02-14T01:10:33.272Z,1.56
2023-02-14T01:13:00.377Z,1.67
2023-02-14T01:15:28.620Z,1.76
2023-02-14T01:17:55.744Z,1.76
2023-02-14T01:20:22.868Z,1.88
2023-02-14T01:22:49.934Z,1.84
2023-02-14T01:25:17.209Z,1.90
2023-02-14T01:27:44.881Z,1.93
2023-02-14T01:30:14.425Z,2.04
2023-02-14T01:32:42.546Z,1.96
2023-02-14T01:35:10.794Z,1.92
2023-02-14T01:37:38.091Z,1.90
2023-02-14T01:40:08.471Z,1.90
2023-02-14T01:42:36.761Z,1.77
2023-02-14T01:45:18.760Z,1.61
2023-02-14T01:47:51.842Z,1.52
2023-02-14T01:50:24.369Z,1.49
2023-02-14T01:52:55.800Z,1.65
2023-02-14T01:55:28.757Z,1.66
2023-02-14T01:58:09.471Z,1.48
2023-02-14T02:00:57.225Z,1.79
2023-02-14T02:03:48.524Z,1.65
2023-02-14T02:06:16.883Z,1.80
2023-02-14T02:08:54.471Z,1.90
2023-02-14T02:11:21.942Z,1.67
2023-02-14T02:13:49.048Z,1.71
2023-02-14T02:17:15.066Z,1.59
2023-02-14T02:20:11.091Z,1.48
2023-02-14T02:23:05.401Z,1.72
2023-02-14T02:25:56.855Z,1.56
2023-02-14T02:28:32.612Z,1.66
2023-02-14T02:31:11.789Z,1.64
2023-02-14T02:34:30.293Z,1.81
2023-02-14T02:37:16.288Z,1.85
2023-02-14T02:40:09.071Z,1.66
2023-02-14T02:42:44.135Z,1.48
2023-02-14T02:46:02.315Z,1.75
2023-02-14T02:48:43.534Z,1.55
2023-02-14T02:51:36.775Z,1.44
2023-02-14T02:54:11.758Z,1.61
2023-02-14T02:56:49.959Z,1.61
2023-02-14T02:59:29.936Z,1.73
2023-02-14T03:02:18.191Z,1.73
2023-02-14T03:04:54.787Z,1.77
2023-02-14T03:07:41.969Z,1.59
2023-02-14T03:10:26.993Z,1.78
2023-02-14T03:13:11.397Z,1.79
2023-02-14T03:15:57.152Z,1.36
2023-02-14T03:18:39.661Z,1.13
2023-02-14T03:21:25.440Z,1.13
2023-02-14T03:24:16.769Z,1.35
2023-02-14T03:27:18.788Z,1.23
2023-02-14T03:30:09.871Z,0.97
2023-02-14T03:32:58.993Z,0.93
2023-02-14T03:35:55.262Z,1.06
2023-02-14T03:38:35.128Z,1.37
2023-02-14T03:41:16.058Z,1.34
2023-02-14T03:43:53.695Z,1.46
2023-02-14T03:46:23.352Z,1.60
2023-02-14T03:48:54.536Z,1.62
2023-02-14T03:51:24.255Z,1.67
2023-02-14T03:53:57.247Z,1.62
2023-02-14T03:56:36.202Z,1.63
2023-02-14T03:59:18.688Z,1.58
2023-02-14T04:01:50.845Z,1.39
2023-02-14T04:04:21.944Z,1.34
2023-02-14T04:06:48.811Z,1.56
2023-02-14T04:09:15.833Z,1.33
2023-02-14T04:11:43.054Z,1.44
2023-02-14T04:14:10.124Z,1.48
2023-02-14T04:16:57.091Z,1.58
2023-02-14T04:19:24.152Z,1.50
2023-02-14T04:21:52.536Z,1.36
2023-02-14T04:24:20.355Z,1.53
2023-02-14T04:27:06.054Z,1.58
2023-02-14T04:29:33.076Z,1.55
2023-02-14T04:32:00.229Z,1.59
2023-02-14T04:34:27.418Z,1.44
2023-02-14T04:36:54.937Z,1.48
2023-02-14T04:39:22.007Z,1.39
2023-02-14T04:41:49.020Z,1.33
2023-02-14T04:44:16.065Z,1.36
2023-02-14T04:46:43.266Z,1.38
2023-02-14T04:49:10.342Z,1.54
2023-02-14T04:51:37.389Z,1.59
2023-02-14T04:54:04.500Z,1.38
2023-02-14T04:56:31.560Z,1.27
2023-02-14T04:59:00.608Z,1.32
2023-02-14T05:01:27.941Z,1.30
2023-02-14T05:03:55.022Z,1.38
2023-02-14T05:06:22.108Z,1.62
2023-02-14T05:08:49.272Z,1.45
2023-02-14T05:11:16.510Z,1.49
2023-02-14T05:13:43.606Z,1.47
2023-02-14T05:16:10.853Z,1.47
2023-02-14T05:18:38.055Z,1.53
2023-02-14T05:21:05.440Z,1.40
2023-02-14T05:23:32.621Z,1.42
2023-02-14T05:25:59.755Z,1.64
2023-02-14T05:28:26.862Z,1.85
2023-02-14T05:30:54.017Z,2.13
2023-02-14T05:33:21.170Z,1.89
2023-02-14T05:35:48.286Z,2.19
2023-02-14T05:38:15.407Z,1.95
2023-02-14T05:40:43.329Z,1.99
2023-02-14T05:43:10.592Z,1.70
2023-02-14T05:45:38.137Z,1.74
2023-02-14T05:48:06.496Z,1.69
2023-02-14T05:50:33.726Z,1.93
2023-02-14T05:53:01.374Z,2.00
2023-02-14T05:55:28.655Z,2.09
2023-02-14T05:57:55.881Z,1.90
2023-02-14T06:00:24.309Z,1.90
2023-02-14T06:02:51.729Z,1.55
2023-02-14T06:05:20.304Z,1.66
2023-02-14T06:07:50.967Z,1.73
2023-02-14T06:10:19.533Z,1.69
2023-02-14T06:12:49.208Z,1.72
2023-02-14T06:15:16.608Z,1.97
2023-02-14T06:17:44.004Z,2.29
2023-02-14T06:20:11.896Z,2.26
2023-02-14T06:22:39.361Z,2.02
2023-02-14T06:25:06.753Z,2.14
2023-02-14T06:27:33.859Z,2.47
2023-02-14T06:30:01.452Z,2.44
2023-02-14T06:32:32.085Z,2.20
2023-02-14T06:34:59.171Z,2.17
2023-02-14T06:37:26.418Z,2.02
2023-02-14T06:39:53.581Z,2.10
2023-02-14T06:42:20.742Z,2.41
2023-02-14T06:44:47.792Z,2.35
2023-02-14T06:47:14.895Z,2.40
2023-02-14T06:49:42.118Z,2.47
2023-02-14T06:52:09.177Z,2.39
2023-02-14T06:54:36.626Z,2.15
2023-02-14T06:57:03.883Z,2.23
2023-02-14T06:59:30.972Z,2.22
2023-02-14T07:01:58.112Z,2.21
2023-02-14T07:04:25.182Z,2.15
2023-02-14T07:06:52.221Z,2.10
2023-02-14T07:09:19.378Z,2.03
2023-02-14T07:11:46.858Z,2.26
2023-02-14T07:14:14.340Z,2.16
2023-02-14T07:16:41.477Z,1.87
2023-02-14T07:19:08.583Z,2.01
2023-02-14T07:21:35.706Z,2.13
2023-02-14T07:24:02.857Z,2.30
2023-02-14T07:26:29.937Z,2.71
2023-02-14T07:28:57.072Z,2.14
2023-02-14T07:31:24.402Z,2.09
2023-02-14T07:33:52.463Z,2.02
2023-02-14T07:36:19.655Z,2.05
2023-02-14T07:38:46.808Z,2.42
2023-02-14T07:41:13.869Z,2.42
2023-02-14T07:43:40.958Z,2.54
2023-02-14T07:46:08.684Z,2.28
2023-02-14T07:48:35.823Z,2.27
2023-02-14T07:51:03.406Z,2.18
2023-02-14T07:53:30.818Z,2.09
2023-02-14T07:55:57.941Z,2.26
2023-02-14T07:58:25.106Z,2.02
2023-02-14T08:00:52.535Z,2.14
2023-02-14T08:03:19.679Z,2.42
2023-02-14T08:05:57.317Z,2.61
2023-02-14T08:08:29.975Z,2.50
2023-02-14T08:10:58.052Z,2.62
2023-02-14T08:13:25.424Z,2.53
2023-02-14T08:16:04.901Z,2.34
2023-02-14T08:18:36.558Z,2.35
2023-02-14T08:21:05.105Z,2.43
2023-02-14T08:23:32.788Z,2.50
2023-02-14T08:25:59.880Z,2.51
2023-02-14T08:28:27.934Z,2.29
2023-02-14T08:30:55.852Z,2.50
2023-02-14T08:33:23.185Z,2.94
2023-02-14T08:35:52.067Z,3.22
2023-02-14T08:38:19.261Z,3.27
2023-02-14T08:40:46.490Z,3.15
2023-02-14T08:43:14.034Z,3.00
2023-02-14T08:45:41.320Z,3.21
2023-02-14T08:48:11.305Z,2.88
2023-02-14T08:50:39.834Z,2.89
2023-02-14T08:53:11.885Z,2.67
2023-02-14T08:55:39.592Z,2.88
2023-02-14T08:58:07.948Z,3.06
2023-02-14T09:00:35.428Z,2.79
2023-02-14T09:03:02.758Z,2.72
2023-02-14T09:05:30.164Z,2.72
2023-02-14T09:07:57.458Z,2.98
2023-02-14T09:10:25.330Z,3.67
2023-02-14T09:12:52.619Z,3.57
2023-02-14T09:15:20.074Z,2.91
2023-02-14T09:17:47.909Z,2.91
2023-02-14T09:20:16.237Z,2.89
2023-02-14T09:22:43.958Z,3.07
2023-02-14T09:25:11.618Z,2.96
2023-02-14T09:27:40.284Z,3.00
2023-02-14T09:30:10.576Z,3.04
2023-02-14T09:32:37.687Z,2.92
2023-02-14T09:35:05.046Z,2.69
2023-02-14T09:37:32.095Z,2.54
2023-02-14T09:39:59.203Z,2.62
2023-02-14T09:42:48.098Z,2.36
2023-02-14T09:45:19.819Z,2.37
2023-02-14T09:47:52.896Z,2.26
2023-02-14T09:50:49.906Z,2.40
2023-02-14T09:53:30.186Z,2.49
2023-02-14T09:56:20.712Z,2.46
2023-02-14T09:59:17.617Z,2.63
2023-02-14T10:01:56.823Z,3.01
2023-02-14T10:04:23.965Z,2.61
2023-02-14T10:06:56.717Z,2.76
2023-02-14T10:10:09.486Z,3.05
2023-02-14T10:12:52.802Z,2.36
2023-02-14T10:15:30.632Z,2.65
2023-02-14T10:18:27.488Z,2.80
2023-02-14T10:21:00.474Z,2.87
2023-02-14T10:23:38.269Z,2.72
2023-02-14T10:26:10.841Z,2.60
2023-02-14T10:28:45.307Z,2.82
2023-02-14T10:31:31.570Z,2.56
2023-02-14T10:34:24.772Z,2.66
2023-02-14T10:36:54.692Z,2.45
2023-02-14T10:39:43.285Z,2.73
2023-02-14T10:42:13.342Z,2.79
2023-02-14T10:45:15.946Z,2.54
2023-02-14T10:48:01.473Z,2.90
2023-02-14T10:50:44.667Z,2.96
2023-02-14T10:53:17.596Z,3.33
2023-02-14T10:56:10.038Z,2.63
2023-02-14T10:58:40.305Z,2.43
2023-02-14T11:01:12.453Z,2.51
2023-02-14T11:03:44.041Z,2.47
2023-02-14T11:06:11.722Z,2.61
2023-02-14T11:08:41.459Z,2.73
2023-02-14T11:11:19.796Z,3.08
2023-02-14T11:13:47.339Z,2.80
2023-02-14T11:16:32.754Z,2.75
2023-02-14T11:19:14.923Z,2.49
2023-02-14T11:21:44.933Z,2.35
2023-02-14T11:24:33.062Z,2.51
2023-02-14T11:27:04.212Z,2.51
2023-02-14T11:29:36.532Z,2.44
2023-02-14T11:32:09.832Z,2.59
2023-02-14T11:34:40.164Z,2.48
2023-02-14T11:37:25.920Z,2.36
2023-02-14T11:39:55.633Z,2.72
2023-02-14T11:42:43.144Z,2.48
2023-02-14T11:45:29.006Z,2.21
2023-02-14T11:48:19.985Z,2.37
2023-02-14T11:51:03.088Z,2.40
2023-02-14T11:53:56.180Z,2.35
2023-02-14T11:56:24.617Z,2.62
2023-02-14T11:58:58.246Z,2.90
2023-02-14T12:01:30.071Z,2.81
2023-02-14T12:04:04.201Z,2.70
2023-02-14T12:06:34.251Z,2.83
2023-02-14T12:09:23.735Z,2.66
2023-02-14T12:11:58.188Z,2.41
2023-02-14T12:14:29.711Z,2.29
2023-02-14T12:17:12.092Z,2.88
2023-02-14T12:19:59.851Z,2.51
2023-02-14T12:22:33.774Z,2.81
2023-02-14T12:25:15.909Z,2.78
2023-02-14T12:27:48.757Z,2.67
2023-02-14T12:30:20.938Z,2.49
2023-02-14T12:32:53.511Z,2.40
2023-02-14T12:35:39.225Z,2.42
2023-02-14T12:38:12.117Z,2.01
2023-02-14T12:41:02.142Z,2.30
2023-02-14T12:43:51.539Z,2.46
2023-02-14T12:46:33.528Z,2.74
2023-02-14T12:49:25.024Z,2.38
2023-02-14T12:52:06.507Z,2.20
2023-02-14T12:54:50.583Z,2.27
2023-02-14T12:58:02.428Z,2.12
2023-02-14T13:00:32.460Z,2.12
2023-02-14T13:03:30.578Z,2.18
2023-02-14T13:06:00.588Z,2.12
2023-02-14T13:08:46.987Z,2.46
2023-02-14T13:11:41.461Z,2.23
2023-02-14T13:14:45.889Z,2.35
2023-02-14T13:17:35.490Z,2.68
2023-02-14T13:20:24.961Z,2.58
2023-02-14T13:22:55.312Z,2.78
2023-02-14T13:25:36.212Z,3.07
2023-02-14T13:28:07.455Z,2.67
2023-02-14T13:30:37.303Z,2.37
2023-02-14T13:33:09.769Z,2.38
2023-02-14T13:35:37.719Z,2.55
2023-02-14T13:38:08.714Z,2.37
2023-02-14T13:40:36.144Z,2.26
2023-02-14T13:43:03.479Z,2.15
2023-02-14T13:45:35.078Z,2.23
2023-02-14T13:48:06.684Z,2.01
2023-02-14T13:50:38.706Z,2.02
2023-02-14T13:53:11.206Z,1.99
2023-02-14T13:55:44.597Z,2.07
2023-02-14T13:58:21.825Z,2.27
2023-02-14T14:00:50.322Z,2.13
2023-02-14T14:03:30.006Z,2.13
2023-02-14T14:06:05.044Z,2.18
2023-02-14T14:08:32.184Z,1.76
2023-02-14T14:11:01.842Z,1.86
2023-02-14T14:13:41.134Z,1.96
2023-02-14T14:16:29.363Z,2.10
2023-02-14T14:19:10.564Z,2.07
2023-02-14T14:21:43.157Z,1.96
2023-02-14T14:24:29.161Z,1.91
2023-02-14T14:27:17.727Z,1.69
2023-02-14T14:29:56.216Z,1.75
2023-02-14T14:32:35.323Z,2.03
2023-02-14T14:35:04.405Z,2.10
2023-02-14T14:37:50.073Z,1.94
2023-02-14T14:40:36.043Z,1.48
2023-02-14T14:43:24.341Z,1.86
2023-02-14T14:45:53.426Z,1.74
2023-02-14T14:48:40.277Z,1.92
2023-02-14T14:51:10.103Z,2.00
2023-02-14T14:53:48.959Z,1.74
2023-02-14T14:56:26.029Z,2.08
2023-02-14T14:58:54.395Z,2.07
2023-02-14T15:01:30.621Z,1.93
2023-02-14T15:04:22.444Z,2.05
2023-02-14T15:06:49.931Z,1.68
2023-02-14T15:09:23.799Z,1.97
2023-02-14T15:12:11.823Z,1.91
2023-02-14T15:14:42.324Z,1.79
2023-02-14T15:17:19.872Z,1.91
2023-02-14T15:19:51.726Z,1.84
2023-02-14T15:22:25.883Z,1.72
2023-02-14T15:24:53.737Z,1.52
2023-02-14T15:27:23.659Z,1.81
2023-02-14T15:29:55.335Z,1.85
2023-02-14T15:32:24.241Z,1.78
2023-02-14T15:34:52.786Z,1.64
2023-02-14T15:37:21.622Z,1.52
2023-02-14T15:39:53.227Z,1.48
2023-02-14T15:42:26.001Z,1.37
2023-02-14T15:45:18.110Z,1.35
2023-02-14T15:47:47.943Z,1.41
2023-02-14T15:50:18.293Z,1.21
2023-02-14T15:52:47.559Z,1.48
2023-02-14T15:55:22.657Z,1.53
2023-02-14T15:57:56.972Z,1.48
2023-02-14T16:00:25.249Z,1.19
2023-02-14T16:02:59.559Z,1.51
2023-02-14T16:05:27.658Z,1.22
2023-02-14T16:08:27.620Z,1.59
2023-02-14T16:11:14.722Z,1.30
2023-02-14T16:13:45.058Z,1.42
2023-02-14T16:16:14.213Z,1.63
2023-02-14T16:18:50.199Z,1.45
2023-02-14T16:21:33.976Z,1.34
2023-02-14T16:24:13.336Z,1.54
2023-02-14T16:26:43.031Z,1.71
2023-02-14T16:29:13.193Z,1.61
2023-02-14T16:32:06.223Z,1.23
2023-02-14T16:34:32.010Z,1.22
2023-02-14T16:37:05.603Z,0.99
2023-02-14T16:39:32.850Z,1.25
2023-02-14T16:42:01.766Z,0.92
2023-02-14T16:44:32.028Z,1.42
2023-02-14T16:47:02.222Z,1.27
2023-02-14T16:49:30.231Z,1.62
2023-02-14T16:51:57.755Z,1.51
2023-02-14T16:54:26.855Z,1.80
2023-02-14T16:57:03.401Z,1.93
2023-02-14T16:59:31.300Z,1.36
2023-02-14T17:01:58.980Z,1.47
2023-02-14T17:04:26.447Z,1.13
2023-02-14T17:06:55.267Z,0.97
2023-02-14T17:09:28.029Z,1.10
2023-02-14T17:12:00.402Z,1.43
2023-02-14T17:14:33.252Z,1.36
2023-02-14T17:17:00.778Z,1.23
2023-02-14T17:19:28.096Z,1.45
2023-02-14T17:21:58.249Z,1.29
2023-02-14T17:24:26.352Z,1.25
2023-02-14T17:26:53.403Z,1.35
2023-02-14T17:29:20.558Z,1.03
2023-02-14T17:31:47.771Z,0.94
2023-02-14T17:34:14.930Z,0.99
2023-02-14T17:36:42.640Z,0.84
2023-02-14T17:39:09.932Z,1.13
2023-02-14T17:41:37.033Z,0.86
2023-02-14T17:44:05.812Z,1.13
2023-02-14T17:46:33.239Z,1.26
2023-02-14T17:49:02.734Z,0.96
2023-02-14T17:51:30.238Z,0.96
2023-02-14T17:53:58.948Z,0.83
2023-02-14T17:56:27.317Z,1.01
2023-02-14T17:58:55.402Z,0.98
2023-02-14T18:01:26.000Z,1.17
2023-02-14T18:03:56.237Z,1.16
2023-02-14T18:06:23.546Z,1.21
2023-02-14T18:08:53.187Z,1.23
2023-02-14T18:11:21.760Z,1.52
2023-02-14T18:13:50.004Z,1.67
2023-02-14T18:16:18.938Z,1.46
2023-02-14T18:18:46.458Z,1.48
2023-02-14T18:21:16.069Z,1.37
2023-02-14T18:23:43.530Z,1.19
2023-02-14T18:26:12.860Z,1.38
2023-02-14T18:28:40.044Z,1.48
2023-02-14T18:31:12.924Z,1.43
2023-02-14T18:33:40.424Z,1.59
2023-02-14T18:36:13.276Z,1.36
2023-02-14T18:38:45.278Z,1.34
2023-02-14T18:41:16.071Z,0.90
2023-02-14T18:43:44.643Z,0.86
2023-02-14T18:46:15.252Z,1.02
2023-02-14T18:48:44.126Z,0.74
2023-02-14T18:51:14.288Z,0.91
2023-02-14T18:53:43.189Z,0.77
2023-02-14T18:56:13.549Z,0.65
2023-02-14T18:58:42.366Z,0.40
2023-02-14T19:01:15.197Z,0.59
2023-02-14T19:03:43.131Z,0.40
2023-02-14T19:06:12.090Z,0.78
2023-02-14T19:08:40.557Z,1.03
2023-02-14T19:11:16.874Z,1.01
2023-02-14T19:13:46.400Z,0.78
2023-02-14T19:16:16.239Z,0.82
2023-02-14T19:18:43.723Z,0.68
2023-02-14T19:21:16.043Z,0.73
2023-02-14T19:23:43.190Z,0.47
2023-02-14T19:26:16.126Z,0.40
2023-02-14T19:28:46.899Z,0.23
2023-02-14T19:31:14.042Z,0.29
2023-02-14T19:33:46.691Z,0.45
2023-02-14T19:36:16.117Z,0.09
2023-02-14T19:38:44.857Z,0.35
2023-02-14T19:41:17.134Z,0.08
2023-02-14T19:43:46.097Z,0.37
2023-02-14T19:46:14.528Z,0.50
2023-02-14T19:48:44.271Z,0.08
2023-02-14T19:51:29.579Z,-0.32
2023-02-14T19:54:00.437Z,-0.15
2023-02-14T19:56:33.070Z,-0.23
2023-02-14T19:59:00.546Z,0.12
2023-02-14T20:01:31.921Z,-0.05
2023-02-14T20:03:59.043Z,0.08
2023-02-14T20:06:29.379Z,-0.30
2023-02-14T20:08:57.091Z,-0.13
2023-02-14T20:11:33.043Z,0.09
2023-02-14T20:14:01.378Z,0.03
2023-02-14T20:16:31.553Z,-0.04
2023-02-14T20:19:00.925Z,0.15
2023-02-14T20:21:28.516Z,0.12
2023-02-14T20:24:00.945Z,0.08
2023-02-14T20:26:29.509Z,-0.30
2023-02-14T20:29:00.097Z,-0.25
2023-02-14T20:31:27.409Z,-0.19
2023-02-14T20:33:55.549Z,-0.61
2023-02-14T20:36:25.888Z,-0.19
2023-02-14T20:38:56.396Z,-0.41
2023-02-14T20:41:23.834Z,-0.34
2023-02-14T20:43:50.921Z,-0.29
2023-02-14T20:46:18.529Z,0.17
2023-02-14T20:48:45.732Z,0.10
2023-02-14T20:51:18.529Z,0.07
2023-02-14T20:53:48.951Z,0.01
2023-02-14T20:56:16.703Z,-0.15
2023-02-14T20:58:43.785Z,-0.46
2023-02-14T21:01:16.563Z,-0.24
2023-02-14T21:03:46.987Z,-0.82
2023-02-14T21:06:15.195Z,-0.87
2023-02-14T21:08:44.500Z,-0.20
2023-02-14T21:11:13.837Z,-0.46
2023-02-14T21:13:41.047Z,-0.13
2023-02-14T21:16:16.540Z,-0.23
2023-02-14T21:18:48.120Z,-0.67
2023-02-14T21:21:20.799Z,-0.62
2023-02-14T21:23:52.178Z,-0.31
2023-02-14T21:26:21.420Z,-0.23
2023-02-14T21:28:48.773Z,-0.45
2023-02-14T21:31:20.978Z,-0.27
2023-02-14T21:33:53.660Z,-0.34
2023-02-14T21:36:22.716Z,-0.58
2023-02-14T21:38:50.582Z,-0.58
2023-02-14T21:41:20.516Z,-0.66
2023-02-14T21:43:50.317Z,-0.62
2023-02-14T21:46:19.981Z,-0.65
2023-02-14T21:49:05.744Z,-0.43
2023-02-14T21:51:32.965Z,-0.49
2023-02-14T21:54:00.067Z,-0.12
2023-02-14T21:56:28.150Z,-0.40
2023-02-14T21:59:14.170Z,-0.57
2023-02-14T22:01:42.631Z,-0.59
2023-02-14T22:04:12.362Z,-0.91
2023-02-14T22:06:41.143Z,-0.79
2023-02-14T22:09:09.239Z,-0.71
2023-02-14T22:11:36.750Z,-0.94
2023-02-14T22:14:03.883Z,-0.90
2023-02-14T22:16:31.294Z,-0.75
2023-02-14T22:18:58.437Z,-0.85
2023-02-14T22:21:27.176Z,-0.41
2023-02-14T22:23:55.860Z,-0.68
2023-02-14T22:26:28.841Z,-0.38
2023-02-14T22:28:59.279Z,-0.34
2023-02-14T22:31:28.562Z,-0.37
2023-02-14T22:33:55.902Z,-0.50
2023-02-14T22:36:23.125Z,-0.37
2023-02-14T22:38:50.409Z,-0.27
2023-02-14T22:41:21.056Z,-0.33
2023-02-14T22:43:48.861Z,-0.62
2023-02-14T22:46:27.251Z,-0.69
2023-02-14T22:48:55.665Z,-0.67
2023-02-14T22:51:26.023Z,-0.79
2023-02-14T22:54:07.913Z,-0.66
2023-02-14T22:56:47.991Z,-0.50
2023-02-14T22:59:18.700Z,-0.80
2023-02-14T23:01:46.500Z,-0.62
2023-02-14T23:04:16.070Z,-0.56
2023-02-14T23:06:43.872Z,-0.60
2023-02-14T23:09:12.391Z,-0.54
2023-02-14T23:11:40.976Z,-0.55
2023-02-14T23:14:27.738Z,-0.62
2023-02-14T23:17:13.363Z,-0.54
2023-02-14T23:19:59.358Z,-0.23
2023-02-14T23:22:29.054Z,-0.17
2023-02-14T23:24:58.690Z,-0.40
2023-02-14T23:27:38.674Z,-0.57
2023-02-14T23:30:08.606Z,-0.74
2023-02-14T23:32:36.141Z,-0.67
2023-02-14T23:35:03.277Z,-0.38
2023-02-14T23:37:31.131Z,-0.45
2023-02-14T23:39:58.217Z,-0.57
2023-02-14T23:42:25.250Z,-0.46
2023-02-14T23:44:52.306Z,-0.19
2023-02-14T23:47:19.406Z,-0.59
2023-02-14T23:49:46.498Z,-0.65
2023-02-14T23:52:14.023Z,-0.52
2023-02-14T23:54:41.314Z,-0.72
2023-02-14T23:57:09.301Z,-0.70
2023-02-14T23:59:36.485Z,-0.25
